createdAt,value
2022-08-29T17:14:24.962Z,20.65
2022-08-29T17:16:55.293Z,20.69
2022-08-29T17:19:25.011Z,20.78
2022-08-29T17:22:04.073Z,20.86
2022-08-29T17:24:46.368Z,20.96
2022-08-29T17:27:25.727Z,21.06
2022-08-29T17:30:41.340Z,21.18
2022-08-29T17:33:40.247Z,21.25
2022-08-29T17:36:28.529Z,21.33
2022-08-29T17:42:14.291Z,21.43
2022-08-29T17:44:54.765Z,21.49
2022-08-29T17:48:07.855Z,21.50
2022-08-29T17:50:45.152Z,21.53
2022-08-29T17:53:50.530Z,21.55
2022-08-29T17:56:44.264Z,21.57
2022-08-29T17:59:28.965Z,21.56
2022-08-29T18:02:42.413Z,21.54
2022-08-29T18:05:34.150Z,21.52
2022-08-29T18:08:46.948Z,21.52
2022-08-29T18:11:51.576Z,21.47
2022-08-29T18:14:55.891Z,21.40
2022-08-29T18:18:02.835Z,21.38
2022-08-29T18:21:44.708Z,21.28
2022-08-29T18:25:16.900Z,21.21
2022-08-29T18:28:17.322Z,21.17
2022-08-29T18:31:06.885Z,21.15
2022-08-29T18:38:35.420Z,21.03
2022-08-29T19:25:55.114Z,20.08
2022-08-29T19:28:37.010Z,20.06
2022-08-29T19:31:44.138Z,20.07
2022-08-29T19:34:52.390Z,20.07
2022-08-29T19:40:51.741Z,20.04
2022-08-29T19:43:37.701Z,19.98
2022-08-29T19:46:28.475Z,19.93
2022-08-29T19:49:11.911Z,19.87
2022-08-29T19:51:53.777Z,19.83
2022-08-29T19:54:23.275Z,19.80
2022-08-29T19:56:55.162Z,19.79
2022-08-29T19:59:26.942Z,19.77
2022-08-29T20:02:07.311Z,19.75
2022-08-29T20:04:45.596Z,19.72
2022-08-29T20:07:40.871Z,19.66
2022-08-29T20:10:32.806Z,19.57
2022-08-29T20:13:23.388Z,19.49
2022-08-29T20:16:16.909Z,19.44
2022-08-29T20:19:08.233Z,19.37
2022-08-29T20:22:00.615Z,19.31
2022-08-29T20:25:15.487Z,19.25
2022-08-29T20:28:20.775Z,19.19
2022-08-29T20:31:22.719Z,19.15
2022-08-29T20:34:00.328Z,19.13
2022-08-29T20:36:51.885Z,19.10
2022-08-29T20:39:34.251Z,19.05
2022-08-29T20:42:56.714Z,19.00
2022-08-29T20:45:49.127Z,18.95
2022-08-29T20:48:26.475Z,18.92
2022-08-29T20:51:27.510Z,18.87
2022-08-29T20:54:10.763Z,18.85
2022-08-29T20:56:51.341Z,18.84
2022-08-29T20:59:31.471Z,18.80
2022-08-29T21:02:49.762Z,18.77
2022-08-29T21:09:25.484Z,18.65
2022-08-29T21:19:53.272Z,18.56
2022-08-29T21:24:01.348Z,18.55
2022-08-29T21:27:36.025Z,18.58
2022-08-29T21:34:08.204Z,18.62
2022-08-29T21:37:01.191Z,18.62
2022-08-29T21:42:02.736Z,18.63
2022-08-29T21:44:07.722Z,18.59
2022-08-29T21:47:08.788Z,18.56
2022-08-29T21:50:01.711Z,18.57
2022-08-29T21:52:47.466Z,18.56
2022-08-29T21:55:43.485Z,18.56
2022-08-29T21:59:13.411Z,18.56
2022-08-29T22:01:54.849Z,18.54
2022-08-29T22:04:52.786Z,18.53
2022-08-29T22:07:40.987Z,18.52
2022-08-29T22:10:32.651Z,18.53
2022-08-29T22:13:21.935Z,18.55
2022-08-29T22:16:21.047Z,18.56
2022-08-29T22:19:19.573Z,18.55
2022-08-29T22:22:01.190Z,18.56
2022-08-29T22:24:45.757Z,18.58
2022-08-29T22:27:34.272Z,18.58
2022-08-29T22:30:23.531Z,18.58
2022-08-29T22:33:18.000Z,18.55
2022-08-29T22:54:02.754Z,18.53
2022-08-29T23:12:01.442Z,18.55
2022-08-29T23:15:36.149Z,18.56
2022-08-29T23:30:48.308Z,18.56
2022-08-29T23:37:44.773Z,18.56
2022-08-29T23:45:25.432Z,18.50
